sensor_id;sensor_type;location;lat;lon;timestamp;pressure;altitude;pressure_sealevel;temperature;humidity
38191;BME280;25191;47.510;19.124;2023-08-21T00:08:16;100669.28;;;24.87;62.97
38191;BME280;25191;47.510;19.124;2023-08-21T00:28:16;100677.19;;;24.67;63.81
38191;BME280;25191;47.510;19.124;2023-08-21T00:48:17;100673.72;;;24.45;63.17
38191;BME280;25191;47.510;19.124;2023-08-21T01:08:47;100698.94;;;24.50;63.12
38191;BME280;25191;47.510;19.124;2023-08-21T01:28:50;100710.34;;;24.40;63.71
38191;BME280;25191;47.510;19.124;2023-08-21T01:48:53;100712.81;;;24.32;64.19
38191;BME280;25191;47.510;19.124;2023-08-21T02:08:56;100704.31;;;24.07;64.39
38191;BME280;25191;47.510;19.124;2023-08-21T02:28:56;100712.75;;;24.22;63.12
38191;BME280;25191;47.510;19.124;2023-08-21T02:48:58;100722.31;;;24.13;63.72
38191;BME280;25191;47.510;19.124;2023-08-21T03:09:00;100713.75;;;24.00;64.56
38191;BME280;25191;47.510;19.124;2023-08-21T03:29:00;100727.25;;;23.86;64.62
38191;BME280;25191;47.510;19.124;2023-08-21T03:49:02;100727.31;;;23.74;64.79
38191;BME280;25191;47.510;19.124;2023-08-21T04:09:02;100726.53;;;23.62;65.64
38191;BME280;25191;47.510;19.124;2023-08-21T04:29:06;100710.34;;;23.77;64.69
38191;BME280;25191;47.510;19.124;2023-08-21T04:49:06;100740.94;;;23.91;64.78
38191;BME280;25191;47.510;19.124;2023-08-21T05:09:07;100761.09;;;24.03;64.21
38191;BME280;25191;47.510;19.124;2023-08-21T05:29:07;100764.22;;;24.08;64.40
38191;BME280;25191;47.510;19.124;2023-08-21T05:49:08;100779.44;;;24.16;64.60
38191;BME280;25191;47.510;19.124;2023-08-21T06:09:09;100782.88;;;24.59;63.05
38191;BME280;25191;47.510;19.124;2023-08-21T06:29:10;100779.91;;;25.24;61.66
38191;BME280;25191;47.510;19.124;2023-08-21T06:49:13;100780.56;;;25.47;61.56
38191;BME280;25191;47.510;19.124;2023-08-21T07:09:13;100769.53;;;25.81;59.76
38191;BME280;25191;47.510;19.124;2023-08-21T07:29:14;100780.28;;;25.89;60.22
38191;BME280;25191;47.510;19.124;2023-08-21T07:49:15;100751.91;;;26.00;59.48
38191;BME280;25191;47.510;19.124;2023-08-21T08:09:15;100788.06;;;26.40;60.01
38191;BME280;25191;47.510;19.124;2023-08-21T08:29:16;100779.66;;;26.45;58.89
38191;BME280;25191;47.510;19.124;2023-08-21T08:49:17;100777.78;;;26.65;59.09
38191;BME280;25191;47.510;19.124;2023-08-21T09:09:19;100780.53;;;26.83;57.92
38191;BME280;25191;47.510;19.124;2023-08-21T09:29:19;100755.13;;;27.26;55.41
38191;BME280;25191;47.510;19.124;2023-08-21T09:49:20;100755.41;;;27.05;55.55
38191;BME280;25191;47.510;19.124;2023-08-21T10:09:23;100739.06;;;27.18;55.78
38191;BME280;25191;47.510;19.124;2023-08-21T10:29:23;100725.78;;;27.36;54.74
38191;BME280;25191;47.510;19.124;2023-08-21T10:49:24;100707.03;;;27.56;53.92
38191;BME280;25191;47.510;19.124;2023-08-21T11:09:24;100702.66;;;28.09;52.78
38191;BME280;25191;47.510;19.124;2023-08-21T11:29:25;100690.78;;;28.38;52.42
38191;BME280;25191;47.510;19.124;2023-08-21T11:49:26;100676.06;;;28.52;50.54
38191;BME280;25191;47.510;19.124;2023-08-21T12:09:26;100657.03;;;28.98;52.73
38191;BME280;25191;47.510;19.124;2023-08-21T12:29:27;100648.00;;;28.31;53.02
38191;BME280;25191;47.510;19.124;2023-08-21T12:49:28;100646.50;;;28.28;52.86
38191;BME280;25191;47.510;19.124;2023-08-21T13:09:29;100629.88;;;28.35;52.97
38191;BME280;25191;47.510;19.124;2023-08-21T13:29:30;100618.50;;;28.16;53.38
38191;BME280;25191;47.510;19.124;2023-08-21T13:49:30;100614.03;;;28.25;52.67
38191;BME280;25191;47.510;19.124;2023-08-21T14:09:30;100599.38;;;28.29;52.05
38191;BME280;25191;47.510;19.124;2023-08-21T14:29:31;100580.41;;;28.24;51.70
38191;BME280;25191;47.510;19.124;2023-08-21T14:49:33;100558.94;;;28.25;52.25
38191;BME280;25191;47.510;19.124;2023-08-21T15:09:35;100567.56;;;28.19;52.59
38191;BME280;25191;47.510;19.124;2023-08-21T15:29:36;100555.00;;;28.46;52.48
38191;BME280;25191;47.510;19.124;2023-08-21T15:49:37;100547.31;;;28.35;52.49
38191;BME280;25191;47.510;19.124;2023-08-21T16:09:43;100533.31;;;28.24;52.26
38191;BME280;25191;47.510;19.124;2023-08-21T16:29:43;100530.81;;;28.23;52.49
38191;BME280;25191;47.510;19.124;2023-08-21T16:49:46;100538.28;;;28.19;52.88
38191;BME280;25191;47.510;19.124;2023-08-21T17:09:48;100532.44;;;28.16;52.90
38191;BME280;25191;47.510;19.124;2023-08-21T17:29:49;100539.44;;;28.17;53.38
38191;BME280;25191;47.510;19.124;2023-08-21T17:49:51;100550.56;;;28.12;54.55
38191;BME280;25191;47.510;19.124;2023-08-21T18:09:52;100566.41;;;28.22;55.23
38191;BME280;25191;47.510;19.124;2023-08-21T18:29:53;100561.97;;;27.96;55.87
38191;BME280;25191;47.510;19.124;2023-08-21T18:49:54;100586.56;;;27.90;54.76
38191;BME280;25191;47.510;19.124;2023-08-21T19:09:55;100496.94;;;27.29;54.22
38191;BME280;25191;47.510;19.124;2023-08-21T19:29:56;100613.97;;;27.82;54.20
38191;BME280;25191;47.510;19.124;2023-08-21T19:49:57;100428.50;;;26.43;54.65
38191;BME280;25191;47.510;19.124;2023-08-21T20:09:58;100516.50;;;26.84;55.59
38191;BME280;25191;47.510;19.124;2023-08-21T20:29:59;100616.94;;;27.53;56.04
38191;BME280;25191;47.510;19.124;2023-08-21T20:50:01;100598.84;;;26.66;58.80
38191;BME280;25191;47.510;19.124;2023-08-21T21:10:04;100651.78;;;26.77;58.66
38191;BME280;25191;47.510;19.124;2023-08-21T21:30:05;100638.78;;;26.46;59.81
38191;BME280;25191;47.510;19.124;2023-08-21T21:50:06;100655.56;;;26.47;60.21
38191;BME280;25191;47.510;19.124;2023-08-21T22:10:13;100647.41;;;26.20;61.39
38191;BME280;25191;47.510;19.124;2023-08-21T22:30:14;100654.16;;;26.05;61.21
38191;BME280;25191;47.510;19.124;2023-08-21T22:50:14;100564.41;;;25.53;61.56
38191;BME280;25191;47.510;19.124;2023-08-21T23:10:16;100614.38;;;25.57;62.24
38191;BME280;25191;47.510;19.124;2023-08-21T23:30:16;100645.19;;;25.68;62.14
38191;BME280;25191;47.510;19.124;2023-08-21T23:50:17;100626.09;;;25.55;62.60
